createdAt,value
2022-12-08T00:00:14.763Z,34.53
2022-12-08T00:02:44.396Z,36.25
2022-12-08T00:05:30.373Z,32.28
2022-12-08T00:08:16.458Z,33.38
2022-12-08T00:10:49.600Z,41.38
2022-12-08T00:13:17.109Z,38.35
2022-12-08T00:15:44.330Z,37.30
2022-12-08T00:18:11.588Z,37.35
2022-12-08T00:20:38.809Z,33.90
2022-12-08T00:23:06.077Z,39.05
2022-12-08T00:25:35.862Z,38.92
2022-12-08T00:28:03.176Z,38.53
2022-12-08T00:30:30.423Z,44.97
2022-12-08T00:32:57.623Z,42.70
2022-12-08T00:35:24.836Z,48.10
2022-12-08T00:37:57.570Z,46.08
2022-12-08T00:42:56.395Z,39.50
2022-12-08T00:45:23.570Z,40.50
2022-12-08T00:47:50.778Z,40.63
2022-12-08T00:50:18.054Z,38.13
2022-12-08T00:52:45.257Z,36.55
2022-12-08T00:55:12.503Z,34.85
2022-12-08T00:57:39.718Z,30.08
2022-12-08T01:00:07.628Z,35.58
2022-12-08T01:02:35.194Z,27.40
2022-12-08T01:05:02.401Z,27.73
2022-12-08T01:07:29.588Z,33.55
2022-12-08T01:09:58.054Z,32.28
2022-12-08T01:12:25.382Z,29.67
2022-12-08T01:14:52.573Z,31.25
2022-12-08T01:17:19.817Z,31.48
2022-12-08T01:19:47.036Z,28.00
2022-12-08T01:22:14.265Z,29.17
2022-12-08T01:24:41.454Z,31.45
2022-12-08T01:27:08.630Z,30.75
2022-12-08T01:29:35.848Z,31.52
2022-12-08T01:32:03.048Z,30.98
2022-12-08T01:34:30.241Z,35.10
2022-12-08T01:36:57.432Z,32.03
2022-12-08T01:39:24.644Z,34.83
2022-12-08T01:41:51.842Z,32.05
2022-12-08T01:44:19.026Z,28.80
2022-12-08T01:46:48.703Z,31.73
2022-12-08T01:49:20.059Z,29.13
2022-12-08T01:52:11.314Z,33.30
2022-12-08T01:54:42.341Z,26.50
2022-12-08T01:57:42.123Z,32.65
2022-12-08T02:00:11.456Z,34.92
2022-12-08T02:02:50.375Z,32.17
2022-12-08T02:05:18.883Z,33.78
2022-12-08T02:07:47.312Z,29.83
2022-12-08T02:10:16.770Z,34.08
2022-12-08T02:12:44.153Z,29.40
2022-12-08T02:15:12.486Z,33.20
2022-12-08T02:17:56.451Z,31.83
2022-12-08T02:20:34.458Z,23.05
2022-12-08T02:23:27.263Z,32.13
2022-12-08T02:26:21.590Z,30.58
2022-12-08T02:29:03.834Z,15.93
2022-12-08T02:31:55.567Z,30.52
2022-12-08T02:34:41.297Z,30.42
2022-12-08T02:37:11.894Z,30.58
2022-12-08T02:39:53.366Z,32.00
2022-12-08T02:43:28.484Z,30.42
2022-12-08T02:45:59.398Z,28.60
2022-12-08T02:48:28.366Z,32.97
2022-12-08T02:50:55.681Z,33.10
2022-12-08T02:53:22.886Z,31.48
2022-12-08T02:56:25.251Z,32.80
2022-12-08T02:59:08.838Z,34.92
2022-12-08T03:01:39.330Z,33.65
2022-12-08T03:04:11.611Z,29.55
2022-12-08T03:07:14.174Z,31.65
2022-12-08T03:09:55.486Z,29.98
2022-12-08T03:12:31.740Z,33.83
2022-12-08T03:15:00.280Z,30.83
2022-12-08T03:17:28.644Z,30.20
2022-12-08T03:19:55.862Z,34.80
2022-12-08T03:22:25.003Z,31.90
2022-12-08T03:24:52.283Z,32.03
2022-12-08T03:27:21.172Z,34.58
2022-12-08T03:29:49.185Z,33.63
2022-12-08T03:32:26.822Z,35.47
2022-12-08T03:34:54.024Z,30.73
2022-12-08T03:37:21.552Z,31.33
2022-12-08T03:39:48.768Z,32.38
2022-12-08T03:42:16.004Z,32.17
2022-12-08T03:44:43.286Z,31.75
2022-12-08T03:47:10.510Z,34.33
2022-12-08T03:49:37.831Z,30.30
2022-12-08T03:52:05.175Z,33.60
2022-12-08T03:54:32.422Z,33.47
2022-12-08T03:56:59.610Z,37.20
2022-12-08T03:59:26.897Z,32.42
2022-12-08T04:01:54.139Z,33.50
2022-12-08T04:04:21.578Z,29.95
2022-12-08T04:06:48.830Z,29.95
2022-12-08T04:09:16.214Z,31.55
2022-12-08T04:11:43.498Z,32.53
2022-12-08T04:14:10.727Z,30.85
2022-12-08T04:16:38.002Z,33.10
2022-12-08T04:19:05.292Z,35.75
2022-12-08T04:21:32.840Z,33.55
2022-12-08T04:24:01.426Z,28.48
2022-12-08T04:26:28.877Z,28.63
2022-12-08T04:28:56.100Z,33.30
2022-12-08T04:31:23.344Z,33.35
2022-12-08T04:33:50.618Z,34.40
2022-12-08T04:36:17.914Z,34.92
2022-12-08T04:38:45.118Z,32.70
2022-12-08T04:41:12.324Z,32.20
2022-12-08T04:43:39.578Z,31.48
2022-12-08T04:46:09.600Z,31.60
2022-12-08T04:48:37.313Z,35.05
2022-12-08T04:51:04.690Z,36.33
2022-12-08T04:53:32.122Z,35.03
2022-12-08T04:55:59.409Z,29.73
2022-12-08T04:58:26.618Z,32.45
2022-12-08T05:00:53.988Z,31.67
2022-12-08T05:03:28.110Z,31.17
2022-12-08T05:05:55.914Z,33.63
2022-12-08T05:08:23.181Z,33.22
2022-12-08T05:10:50.449Z,31.55
2022-12-08T05:13:17.685Z,32.58
2022-12-08T05:15:44.883Z,34.00
2022-12-08T05:18:12.097Z,35.08
2022-12-08T05:20:39.332Z,35.78
2022-12-08T05:23:06.564Z,32.10
2022-12-08T05:25:33.831Z,28.20
2022-12-08T05:28:17.957Z,32.17
2022-12-08T05:30:48.214Z,32.22
2022-12-08T05:33:15.437Z,33.15
2022-12-08T05:35:43.026Z,33.90
2022-12-08T05:38:10.679Z,29.38
2022-12-08T05:40:39.193Z,29.52
2022-12-08T05:43:06.433Z,34.38
2022-12-08T05:45:34.066Z,32.42
2022-12-08T05:48:01.451Z,33.85
2022-12-08T05:50:28.696Z,35.22
2022-12-08T05:52:57.552Z,31.10
2022-12-08T05:55:24.755Z,32.78
2022-12-08T05:57:51.970Z,34.50
2022-12-08T06:00:20.090Z,35.50
2022-12-08T06:02:47.435Z,33.88
2022-12-08T06:05:14.805Z,33.72
2022-12-08T06:07:42.097Z,31.75
2022-12-08T06:10:09.602Z,35.38
2022-12-08T06:12:36.902Z,28.52
2022-12-08T06:15:04.497Z,33.33
2022-12-08T06:17:31.706Z,31.52
2022-12-08T06:19:59.031Z,30.95
2022-12-08T06:22:26.333Z,30.83
2022-12-08T06:24:53.625Z,30.30
2022-12-08T06:27:20.833Z,32.80
2022-12-08T06:29:48.103Z,36.83
2022-12-08T06:32:15.424Z,33.53
2022-12-08T06:34:42.747Z,32.83
2022-12-08T06:37:09.968Z,33.20
2022-12-08T06:39:37.326Z,30.98
2022-12-08T06:42:23.288Z,33.67
2022-12-08T06:44:50.761Z,31.77
2022-12-08T06:47:22.091Z,32.75
2022-12-08T06:49:52.002Z,22.33
2022-12-08T06:52:19.207Z,31.27
2022-12-08T06:54:46.455Z,30.48
2022-12-08T06:57:13.752Z,33.05
2022-12-08T06:59:40.945Z,30.23
2022-12-08T07:02:09.014Z,31.30
2022-12-08T07:04:36.269Z,28.00
2022-12-08T07:07:03.561Z,28.02
2022-12-08T07:09:30.764Z,26.85
2022-12-08T07:11:58.020Z,24.67
2022-12-08T07:14:25.308Z,27.50
2022-12-08T07:16:52.543Z,26.25
2022-12-08T07:19:19.842Z,25.88
2022-12-08T07:21:47.134Z,27.40
2022-12-08T07:24:14.436Z,25.48
2022-12-08T07:26:41.716Z,27.52
2022-12-08T07:29:10.309Z,28.23
2022-12-08T07:31:37.562Z,23.42
2022-12-08T07:34:04.817Z,24.95
2022-12-08T07:36:32.854Z,25.77
2022-12-08T07:39:00.111Z,27.15
2022-12-08T07:41:27.349Z,22.20
2022-12-08T07:43:55.270Z,22.60
2022-12-08T07:46:23.637Z,19.63
2022-12-08T07:48:54.664Z,20.38
2022-12-08T07:51:21.929Z,19.67
2022-12-08T07:53:53.718Z,22.35
2022-12-08T07:56:21.458Z,20.70
2022-12-08T07:58:48.788Z,18.65
2022-12-08T08:01:26.894Z,23.23
2022-12-08T08:03:54.891Z,19.27
2022-12-08T08:06:22.284Z,19.92
2022-12-08T08:08:49.606Z,20.10
2022-12-08T08:11:21.168Z,20.05
2022-12-08T08:13:49.900Z,20.63
2022-12-08T08:16:17.418Z,18.80
2022-12-08T08:18:47.409Z,18.95
2022-12-08T08:21:45.123Z,19.08
2022-12-08T08:24:02.246Z,18.10
2022-12-08T08:26:29.594Z,17.33
2022-12-08T08:28:56.806Z,18.23
2022-12-08T08:31:26.976Z,17.73
2022-12-08T08:33:54.683Z,17.17
2022-12-08T08:36:22.454Z,17.33
2022-12-08T08:38:49.758Z,18.50
2022-12-08T08:41:16.971Z,15.90
2022-12-08T08:43:44.195Z,19.33
2022-12-08T08:46:11.700Z,17.90
2022-12-08T08:48:38.958Z,16.27
2022-12-08T08:51:10.085Z,19.95
2022-12-08T08:53:37.400Z,18.67
2022-12-08T08:56:11.694Z,15.60
2022-12-08T08:58:39.085Z,15.60
2022-12-08T09:01:06.365Z,17.42
2022-12-08T09:03:33.665Z,17.00
2022-12-08T09:06:00.943Z,16.02
2022-12-08T09:08:28.269Z,17.02
2022-12-08T09:10:55.623Z,17.88
2022-12-08T09:13:22.865Z,14.85
2022-12-08T09:15:50.125Z,24.38
2022-12-08T09:18:17.351Z,28.90
2022-12-08T09:20:44.759Z,26.48
2022-12-08T09:23:11.987Z,28.77
2022-12-08T09:25:39.189Z,42.55
2022-12-08T09:28:06.410Z,35.70
2022-12-08T09:30:33.598Z,37.85
2022-12-08T09:33:00.806Z,36.92
2022-12-08T09:35:28.019Z,30.88
2022-12-08T09:37:55.233Z,30.45
2022-12-08T09:40:23.110Z,34.78
2022-12-08T09:43:05.880Z,36.70
2022-12-08T09:45:34.304Z,36.10
2022-12-08T09:48:12.146Z,29.27
2022-12-08T09:50:53.603Z,34.42
2022-12-08T09:53:39.539Z,30.95
2022-12-08T09:56:17.455Z,30.15
2022-12-08T09:59:06.681Z,37.80
2022-12-08T10:01:38.005Z,34.35
2022-12-08T10:04:32.889Z,32.95
2022-12-08T10:07:17.561Z,34.67
2022-12-08T10:10:26.282Z,22.80
2022-12-08T10:13:26.672Z,28.17
2022-12-08T10:16:33.690Z,27.98
2022-12-08T10:19:21.711Z,27.17
2022-12-08T10:21:49.441Z,29.55
2022-12-08T10:24:23.263Z,30.02
2022-12-08T10:26:50.487Z,22.33
2022-12-08T10:29:17.823Z,33.40
2022-12-08T10:31:45.367Z,32.65
2022-12-08T10:34:23.119Z,30.67
2022-12-08T10:36:58.020Z,27.73
2022-12-08T10:39:38.354Z,26.30
2022-12-08T10:42:14.435Z,36.53
2022-12-08T10:45:08.391Z,30.80
2022-12-08T10:47:37.475Z,30.95
2022-12-08T10:50:28.152Z,29.08
2022-12-08T10:53:19.834Z,26.90
2022-12-08T10:56:02.390Z,30.02
2022-12-08T10:58:40.932Z,40.13
2022-12-08T11:01:22.095Z,43.08
2022-12-08T11:03:53.133Z,36.83
2022-12-08T11:06:29.338Z,39.88
2022-12-08T11:08:58.366Z,42.00
2022-12-08T11:11:48.881Z,37.90
2022-12-08T11:14:42.387Z,41.75
2022-12-08T11:17:18.080Z,40.92
2022-12-08T11:20:11.111Z,42.92
2022-12-08T11:22:42.759Z,32.33
2022-12-08T11:25:28.484Z,41.67
2022-12-08T11:27:59.531Z,38.05
2022-12-08T11:30:32.212Z,32.92
2022-12-08T11:33:22.351Z,37.13
2022-12-08T11:36:04.935Z,36.45
2022-12-08T11:38:33.019Z,33.70
2022-12-08T11:41:09.460Z,32.90
2022-12-08T11:43:44.507Z,29.38
2022-12-08T11:46:25.826Z,34.22
2022-12-08T11:49:06.596Z,36.03
2022-12-08T11:51:45.900Z,27.35
2022-12-08T11:54:18.756Z,27.48
2022-12-08T11:56:53.381Z,32.35
2022-12-08T11:59:28.737Z,29.08
2022-12-08T12:02:00.730Z,34.13
2022-12-08T12:04:52.099Z,25.40
2022-12-08T12:07:41.319Z,26.38
2022-12-08T12:10:08.649Z,21.83
2022-12-08T12:12:43.902Z,27.17
2022-12-08T12:15:39.785Z,26.73
2022-12-08T12:18:20.423Z,38.03
2022-12-08T12:20:54.338Z,31.67
2022-12-08T12:23:37.214Z,25.60
2022-12-08T12:26:06.469Z,27.10
2022-12-08T12:28:57.012Z,24.52
2022-12-08T12:31:38.498Z,39.33
2022-12-08T12:34:10.957Z,34.67
2022-12-08T12:36:51.791Z,41.15
2022-12-08T12:39:21.008Z,36.20
2022-12-08T12:42:07.592Z,41.17
2022-12-08T12:44:34.759Z,43.38
2022-12-08T12:47:02.911Z,44.55
2022-12-08T12:49:39.160Z,41.42
2022-12-08T12:52:15.369Z,41.85
2022-12-08T12:55:11.314Z,45.60
2022-12-08T12:57:39.137Z,46.35
2022-12-08T13:00:17.392Z,46.42
2022-12-08T13:02:44.664Z,40.28
2022-12-08T13:05:31.736Z,39.67
2022-12-08T13:08:03.556Z,38.63
2022-12-08T13:10:39.894Z,34.45
2022-12-08T13:13:12.543Z,37.17
2022-12-08T13:15:41.622Z,37.67
2022-12-08T13:18:21.176Z,36.05
2022-12-08T13:20:52.161Z,38.92
2022-12-08T13:23:42.007Z,35.25
2022-12-08T13:26:09.470Z,41.28
2022-12-08T13:29:01.086Z,38.42
2022-12-08T13:31:41.680Z,39.08
2022-12-08T13:34:46.006Z,38.87
2022-12-08T13:37:15.974Z,32.60
2022-12-08T13:39:54.009Z,33.45
2022-12-08T13:42:26.807Z,36.85
2022-12-08T13:45:33.596Z,35.72
2022-12-08T13:48:33.186Z,25.38
2022-12-08T13:57:08.612Z,35.33
2022-12-08T13:59:42.411Z,33.05
2022-12-08T14:02:17.641Z,30.20
2022-12-08T14:07:33.705Z,36.50
2022-12-08T14:10:03.469Z,35.63
2022-12-08T14:12:30.684Z,33.42
2022-12-08T14:15:04.238Z,40.40
2022-12-08T14:17:44.611Z,34.47
2022-12-08T14:20:11.975Z,35.65
2022-12-08T14:22:40.115Z,37.50
2022-12-08T14:25:10.097Z,48.97
2022-12-08T14:27:37.959Z,34.30
2022-12-08T14:30:08.874Z,33.63
2022-12-08T14:32:47.471Z,42.30
2022-12-08T14:35:29.579Z,34.42
2022-12-08T14:38:03.633Z,39.70
2022-12-08T14:40:36.770Z,37.38
2022-12-08T14:43:10.276Z,39.40
2022-12-08T14:45:43.361Z,41.55
2022-12-08T14:48:36.235Z,38.42
2022-12-08T14:51:03.511Z,43.20
2022-12-08T14:53:36.493Z,51.47
2022-12-08T14:56:23.310Z,42.22
2022-12-08T14:59:02.982Z,54.38
2022-12-08T15:01:30.240Z,46.92
2022-12-08T15:04:07.131Z,55.67
2022-12-08T15:06:34.688Z,51.90
2022-12-08T15:09:17.894Z,54.15
2022-12-08T15:11:45.146Z,50.75
2022-12-08T15:14:26.713Z,54.00
2022-12-08T15:16:55.262Z,54.38
2022-12-08T15:19:28.393Z,49.38
2022-12-08T15:22:01.781Z,47.42
2022-12-08T15:24:30.473Z,50.92
2022-12-08T15:26:57.791Z,55.30
2022-12-08T15:29:29.418Z,50.03
2022-12-08T15:31:58.678Z,54.05
2022-12-08T15:34:25.988Z,54.13
2022-12-08T15:36:53.977Z,48.40
2022-12-08T15:39:31.406Z,45.92
2022-12-08T15:41:59.432Z,47.53
2022-12-08T15:44:26.874Z,49.45
2022-12-08T15:46:54.166Z,48.13
2022-12-08T15:49:23.007Z,48.50
2022-12-08T15:51:50.775Z,47.05
2022-12-08T15:54:18.252Z,55.17
2022-12-08T15:57:17.545Z,57.08
2022-12-08T15:59:34.896Z,49.15
2022-12-08T16:02:02.172Z,57.67
2022-12-08T16:07:25.957Z,62.92
2022-12-08T16:09:53.517Z,51.25
2022-12-08T16:13:48.290Z,53.88
2022-12-08T16:15:51.627Z,58.70
2022-12-08T16:18:25.598Z,51.55
2022-12-08T16:23:44.632Z,53.70
2022-12-08T16:26:35.619Z,47.30
2022-12-08T16:29:01.402Z,46.88
2022-12-08T16:31:28.883Z,49.70
2022-12-08T16:33:56.217Z,54.20
2022-12-08T16:36:23.496Z,48.30
2022-12-08T16:38:50.749Z,47.67
2022-12-08T16:41:36.601Z,47.28
2022-12-08T16:44:05.055Z,47.08
2022-12-08T16:46:32.430Z,48.38
2022-12-08T16:48:59.733Z,46.72
2022-12-08T16:51:27.642Z,52.33
2022-12-08T16:53:56.780Z,51.38
2022-12-08T16:56:28.984Z,48.80
2022-12-08T16:58:59.335Z,54.95
2022-12-08T17:01:26.662Z,61.95
2022-12-08T17:04:29.094Z,54.08
2022-12-08T17:06:41.227Z,57.63
2022-12-08T17:09:08.423Z,53.67
2022-12-08T17:11:42.336Z,50.10
2022-12-08T17:14:11.638Z,51.78
2022-12-08T17:16:39.106Z,51.47
2022-12-08T17:19:06.366Z,51.83
2022-12-08T17:21:33.592Z,50.80
2022-12-08T17:24:00.808Z,54.17
2022-12-08T17:26:28.014Z,50.13
2022-12-08T17:29:02.466Z,53.38
2022-12-08T17:31:31.451Z,47.25
2022-12-08T17:34:02.868Z,93.68
2022-12-08T17:36:30.070Z,81.68
2022-12-08T17:38:59.164Z,62.05
2022-12-08T17:41:26.399Z,59.65
2022-12-08T17:43:53.644Z,56.88
2022-12-08T17:46:21.043Z,51.92
2022-12-08T17:48:48.335Z,57.53
2022-12-08T17:51:15.715Z,58.15
2022-12-08T17:53:42.986Z,54.22
2022-12-08T17:56:20.619Z,49.63
2022-12-08T17:58:54.003Z,52.20
2022-12-08T18:01:22.601Z,49.10
2022-12-08T18:03:50.038Z,51.67
2022-12-08T18:06:20.250Z,49.67
2022-12-08T18:08:47.505Z,53.75
2022-12-08T18:11:16.837Z,48.10
2022-12-08T18:13:44.472Z,50.78
2022-12-08T18:16:11.821Z,53.38
2022-12-08T18:18:39.119Z,53.22
2022-12-08T18:21:06.907Z,54.90
2022-12-08T18:23:34.982Z,51.22
2022-12-08T18:26:06.750Z,63.60
2022-12-08T18:28:34.049Z,59.13
2022-12-08T18:31:01.418Z,56.22
2022-12-08T18:33:28.703Z,59.83
2022-12-08T18:35:55.963Z,59.67
2022-12-08T18:38:23.157Z,65.28
2022-12-08T18:40:50.367Z,64.50
2022-12-08T18:43:17.554Z,64.75
2022-12-08T18:45:45.436Z,70.57
2022-12-08T18:48:12.680Z,76.25
2022-12-08T18:50:43.053Z,61.70
2022-12-08T18:53:10.282Z,74.75
2022-12-08T18:55:37.647Z,71.22
2022-12-08T18:58:04.929Z,91.85
2022-12-08T19:00:32.194Z,85.70
2022-12-08T19:02:59.452Z,82.95
2022-12-08T19:05:26.669Z,76.57
2022-12-08T19:07:53.909Z,68.63
2022-12-08T19:10:21.294Z,75.80
2022-12-08T19:12:52.244Z,81.68
2022-12-08T19:15:20.081Z,77.95
2022-12-08T19:17:47.299Z,71.20
2022-12-08T19:20:14.692Z,66.15
2022-12-08T19:22:41.906Z,67.15
2022-12-08T19:25:09.267Z,68.22
2022-12-08T19:27:36.470Z,72.47
2022-12-08T19:30:04.400Z,64.40
2022-12-08T19:32:31.895Z,69.80
2022-12-08T19:34:59.133Z,68.95
2022-12-08T19:37:26.448Z,71.72
2022-12-08T19:40:12.333Z,69.38
2022-12-08T19:42:58.318Z,64.32
2022-12-08T19:45:25.722Z,72.22
2022-12-08T19:47:52.999Z,70.70
2022-12-08T19:50:40.215Z,67.22
2022-12-08T19:53:12.137Z,62.88
2022-12-08T19:55:39.553Z,72.38
2022-12-08T19:58:07.107Z,65.78
2022-12-08T20:00:34.862Z,75.65
2022-12-08T20:03:02.355Z,77.82
2022-12-08T20:05:30.748Z,77.78
2022-12-08T20:07:58.109Z,80.75
2022-12-08T20:10:30.606Z,77.93
2022-12-08T20:13:16.677Z,67.57
2022-12-08T20:15:44.198Z,75.78
2022-12-08T20:18:12.269Z,75.78
2022-12-08T20:20:39.963Z,80.25
2022-12-08T20:23:07.579Z,81.38
2022-12-08T20:25:35.169Z,80.10
2022-12-08T20:28:02.452Z,86.13
2022-12-08T20:30:29.726Z,79.03
2022-12-08T20:32:57.050Z,81.32
2022-12-08T20:35:24.429Z,79.70
2022-12-08T20:37:51.785Z,84.70
2022-12-08T20:40:19.223Z,79.20
2022-12-08T20:42:46.578Z,81.65
2022-12-08T20:45:13.830Z,80.18
2022-12-08T20:47:41.063Z,84.10
2022-12-08T20:50:09.146Z,95.82
2022-12-08T20:52:37.948Z,90.20
2022-12-08T20:55:06.180Z,79.10
2022-12-08T20:57:33.525Z,80.75
2022-12-08T21:00:00.798Z,76.75
2022-12-08T21:02:28.160Z,80.38
2022-12-08T21:04:55.578Z,98.93
2022-12-08T21:07:23.029Z,99.95
2022-12-08T21:09:50.545Z,99.10
2022-12-08T21:12:17.979Z,93.00
2022-12-08T21:14:45.464Z,98.95
2022-12-08T21:17:12.834Z,97.38
2022-12-08T21:19:40.287Z,102.35
2022-12-08T21:22:07.632Z,93.18
2022-12-08T21:24:35.106Z,107.43
2022-12-08T21:27:02.521Z,99.57
2022-12-08T21:29:29.904Z,96.00
2022-12-08T21:31:58.663Z,93.20
2022-12-08T21:34:26.665Z,94.28
2022-12-08T21:36:54.145Z,91.97
2022-12-08T21:39:21.389Z,91.50
2022-12-08T21:42:07.391Z,99.15
2022-12-08T21:44:37.678Z,88.10
2022-12-08T21:47:05.536Z,85.78
2022-12-08T21:49:33.117Z,81.32
2022-12-08T21:52:00.561Z,83.43
2022-12-08T21:54:28.338Z,103.43
2022-12-08T21:56:55.567Z,118.55
2022-12-08T21:59:22.992Z,100.80
2022-12-08T22:01:50.386Z,101.13
2022-12-08T22:04:18.422Z,82.90
2022-12-08T22:06:45.993Z,85.88
2022-12-08T22:09:15.315Z,94.97
2022-12-08T22:11:43.165Z,107.00
2022-12-08T22:14:14.475Z,100.38
2022-12-08T22:16:43.454Z,102.38
2022-12-08T22:19:11.379Z,92.57
2022-12-08T22:21:39.170Z,88.05
2022-12-08T22:24:06.748Z,88.20
2022-12-08T22:26:34.092Z,92.78
2022-12-08T22:29:01.425Z,82.35
2022-12-08T22:31:28.660Z,86.47
2022-12-08T22:33:56.009Z,80.00
2022-12-08T22:36:24.692Z,79.07
2022-12-08T22:38:52.383Z,74.88
2022-12-08T22:41:19.884Z,78.40
2022-12-08T22:43:47.384Z,74.32
2022-12-08T22:46:16.851Z,74.95
2022-12-08T22:48:44.250Z,71.35
2022-12-08T22:51:11.924Z,74.40
2022-12-08T22:53:39.208Z,74.10
2022-12-08T22:56:08.090Z,76.35
2022-12-08T22:58:35.904Z,65.80
2022-12-08T23:01:03.146Z,68.22
2022-12-08T23:03:30.940Z,70.00
2022-12-08T23:05:58.212Z,67.00
2022-12-08T23:08:25.593Z,67.40
2022-12-08T23:10:53.252Z,64.35
2022-12-08T23:13:21.076Z,62.47
2022-12-08T23:15:48.568Z,61.42
2022-12-08T23:18:18.707Z,70.15
2022-12-08T23:20:46.508Z,65.15
2022-12-08T23:23:14.235Z,67.15
2022-12-08T23:25:42.152Z,69.95
2022-12-08T23:28:09.784Z,62.75
2022-12-08T23:30:39.705Z,69.10
2022-12-08T23:33:07.038Z,71.05
2022-12-08T23:35:34.346Z,73.72
2022-12-08T23:38:01.637Z,72.55
2022-12-08T23:40:28.885Z,70.72
2022-12-08T23:42:56.105Z,81.68
2022-12-08T23:45:23.429Z,72.93
2022-12-08T23:47:50.675Z,76.97
2022-12-08T23:50:17.901Z,67.88
2022-12-08T23:52:45.136Z,74.30
2022-12-08T23:55:12.647Z,71.47
2022-12-08T23:57:40.076Z,68.07
